createdAt,value
2019-04-10T00:00:44.404Z,926.54
2019-04-10T00:01:44.651Z,926.57
2019-04-10T00:02:44.009Z,926.61
2019-04-10T00:03:44.086Z,926.57
2019-04-10T00:04:43.951Z,926.61
2019-04-10T00:05:44.523Z,926.62
2019-04-10T00:06:43.920Z,926.58
2019-04-10T00:07:43.910Z,926.58
2019-04-10T00:08:44.188Z,926.58
2019-04-10T00:09:43.888Z,926.60
2019-04-10T00:10:43.920Z,926.61
2019-04-10T00:11:43.866Z,926.65
2019-04-10T00:12:43.859Z,926.67
2019-04-10T00:13:44.928Z,926.71
2019-04-10T00:14:44.900Z,926.71
2019-04-10T00:15:43.823Z,926.75
2019-04-10T00:16:44.581Z,926.72
2019-04-10T00:17:43.800Z,926.69
2019-04-10T00:18:44.299Z,926.72
2019-04-10T00:19:43.830Z,926.69
2019-04-10T00:20:44.798Z,926.67
2019-04-10T00:21:43.755Z,926.72
2019-04-10T00:22:44.499Z,926.67
2019-04-10T00:23:43.775Z,926.64
2019-04-10T00:24:44.233Z,926.63
2019-04-10T00:25:43.713Z,926.63
2019-04-10T00:26:43.872Z,926.61
2019-04-10T00:27:43.687Z,926.58
2019-04-10T00:28:43.709Z,926.57
2019-04-10T00:29:44.598Z,926.55
2019-04-10T00:30:43.655Z,926.58
2019-04-10T00:31:44.508Z,926.57
2019-04-10T00:32:43.944Z,926.58
2019-04-10T00:33:43.636Z,926.60
2019-04-10T00:34:43.619Z,926.59
2019-04-10T00:35:43.833Z,926.54
2019-04-10T00:36:43.674Z,926.54
2019-04-10T00:37:43.577Z,926.56
2019-04-10T00:38:44.217Z,926.55
2019-04-10T00:39:44.507Z,926.51
2019-04-10T00:40:43.767Z,926.51
2019-04-10T00:41:44.225Z,926.52
2019-04-10T00:42:43.539Z,926.52
2019-04-10T00:43:43.572Z,926.45
2019-04-10T00:44:43.860Z,926.48
2019-04-10T00:45:43.984Z,926.50
2019-04-10T00:46:43.481Z,926.51
2019-04-10T00:47:43.499Z,926.52
2019-04-10T00:48:43.896Z,926.53
2019-04-10T00:49:44.101Z,926.55
2019-04-10T00:50:44.480Z,926.57
2019-04-10T00:51:43.649Z,926.59
2019-04-10T00:52:44.178Z,926.55
2019-04-10T00:53:43.546Z,926.59
2019-04-10T00:54:43.529Z,926.55
2019-04-10T00:55:44.077Z,926.55
2019-04-10T00:56:43.438Z,926.60
2019-04-10T00:57:43.549Z,926.60
2019-04-10T00:58:43.713Z,926.64
2019-04-10T00:59:44.174Z,926.59
2019-04-10T01:00:43.454Z,926.56
2019-04-10T01:01:43.721Z,926.53
2019-04-10T01:02:43.298Z,926.54
2019-04-10T01:03:43.770Z,926.53
2019-04-10T01:04:43.307Z,926.51
2019-04-10T01:05:43.761Z,926.49
2019-04-10T01:06:44.211Z,926.47
2019-04-10T01:07:44.692Z,926.49
2019-04-10T01:08:43.232Z,926.42
2019-04-10T01:09:43.747Z,926.46
2019-04-10T01:10:44.206Z,926.41
2019-04-10T01:11:43.454Z,926.41
2019-04-10T01:12:44.020Z,926.42
2019-04-10T01:13:43.200Z,926.40
2019-04-10T01:14:43.177Z,926.42
2019-04-10T01:15:43.164Z,926.41
2019-04-10T01:16:43.959Z,926.40
2019-04-10T01:17:43.136Z,926.36
2019-04-10T01:18:43.607Z,926.43
2019-04-10T01:19:43.974Z,926.40
2019-04-10T01:20:43.886Z,926.38
2019-04-10T01:21:43.093Z,926.37
2019-04-10T01:22:43.452Z,926.39
2019-04-10T01:23:43.065Z,926.37
2019-04-10T01:24:43.943Z,926.36
2019-04-10T01:25:43.040Z,926.32
2019-04-10T01:26:43.313Z,926.30
2019-04-10T01:27:43.027Z,926.31
2019-04-10T01:28:43.019Z,926.28
2019-04-10T01:29:43.971Z,926.28
2019-04-10T01:30:42.984Z,926.25
2019-04-10T01:31:43.514Z,926.31
2019-04-10T01:32:43.944Z,926.30
2019-04-10T01:33:43.057Z,926.27
2019-04-10T01:34:43.400Z,926.24
2019-04-10T01:35:42.930Z,926.29
2019-04-10T01:36:43.842Z,926.33
2019-04-10T01:37:49.444Z,926.26
2019-04-10T01:38:44.158Z,926.27
2019-04-10T01:39:42.920Z,926.25
2019-04-10T01:40:43.447Z,926.27
2019-04-10T01:41:43.615Z,926.28
2019-04-10T01:42:42.851Z,926.24
2019-04-10T01:43:43.378Z,926.22
2019-04-10T01:44:42.853Z,926.26
2019-04-10T01:45:43.691Z,926.28
2019-04-10T01:46:42.805Z,926.22
2019-04-10T01:47:43.494Z,926.20
2019-04-10T01:48:43.764Z,926.19
2019-04-10T01:49:42.788Z,926.19
2019-04-10T01:50:42.766Z,926.18
2019-04-10T01:51:43.517Z,926.16
2019-04-10T01:52:42.739Z,926.20
2019-04-10T01:53:42.731Z,926.13
2019-04-10T01:54:44.596Z,926.08
2019-04-10T01:55:42.993Z,926.16
2019-04-10T01:56:43.796Z,926.15
2019-04-10T01:57:42.705Z,926.16
2019-04-10T01:58:43.409Z,926.10
2019-04-10T01:59:42.675Z,926.11
2019-04-10T02:00:43.587Z,926.18
2019-04-10T02:01:42.944Z,926.15
2019-04-10T02:02:42.629Z,926.11
2019-04-10T02:03:42.638Z,926.13
2019-04-10T02:04:43.763Z,926.15
2019-04-10T02:05:42.871Z,926.11
2019-04-10T02:06:43.271Z,926.12
2019-04-10T02:07:42.573Z,926.16
2019-04-10T02:08:42.567Z,926.10
2019-04-10T02:09:43.497Z,926.12
2019-04-10T02:10:42.590Z,926.17
2019-04-10T02:11:42.528Z,926.09
2019-04-10T02:12:43.667Z,926.14
2019-04-10T02:13:43.502Z,926.10
2019-04-10T02:14:42.608Z,926.07
2019-04-10T02:15:42.517Z,926.11
2019-04-10T02:16:43.215Z,926.11
2019-04-10T02:17:42.460Z,926.05
2019-04-10T02:18:42.460Z,926.05
2019-04-10T02:19:42.684Z,926.08
2019-04-10T02:20:43.144Z,926.03
2019-04-10T02:21:42.427Z,926.03
2019-04-10T02:22:42.405Z,926.01
2019-04-10T02:23:42.740Z,925.99
2019-04-10T02:24:43.060Z,926.00
2019-04-10T02:25:43.183Z,925.97
2019-04-10T02:26:43.416Z,925.96
2019-04-10T02:27:42.641Z,925.99
2019-04-10T02:28:42.968Z,926.02
2019-04-10T02:29:42.326Z,925.98
2019-04-10T02:30:43.713Z,925.99
2019-04-10T02:31:44.037Z,926.01
2019-04-10T02:32:45.150Z,926.00
2019-04-10T02:33:43.293Z,925.98
2019-04-10T02:34:43.773Z,925.98
2019-04-10T02:35:43.524Z,925.94
2019-04-10T02:36:42.625Z,925.99
2019-04-10T02:37:43.430Z,925.98
2019-04-10T02:38:56.154Z,925.94
2019-04-10T02:39:47.831Z,925.98
2019-04-10T02:40:43.459Z,925.96
2019-04-10T02:41:43.910Z,925.98
2019-04-10T02:42:43.176Z,925.98
2019-04-10T02:43:43.019Z,925.96
2019-04-10T02:44:43.910Z,925.97
2019-04-10T02:45:44.234Z,925.96
2019-04-10T02:46:42.145Z,925.99
2019-04-10T02:47:43.235Z,925.96
2019-04-10T02:48:43.402Z,925.93
2019-04-10T02:49:42.549Z,925.94
2019-04-10T02:50:43.043Z,925.98
2019-04-10T02:51:43.267Z,925.97
2019-04-10T02:52:43.255Z,925.95
2019-04-10T02:53:43.832Z,925.96
2019-04-10T02:54:43.544Z,925.91
2019-04-10T02:55:43.195Z,925.94
2019-04-10T02:56:43.394Z,925.93
2019-04-10T02:57:43.523Z,925.90
2019-04-10T02:58:42.700Z,925.90
2019-04-10T02:59:43.155Z,925.91
2019-04-10T03:00:42.256Z,925.90
2019-04-10T03:01:41.980Z,925.94
2019-04-10T03:02:42.150Z,925.94
2019-04-10T03:03:42.444Z,925.93
2019-04-10T03:04:42.514Z,925.95
2019-04-10T03:05:42.660Z,925.93
2019-04-10T03:06:42.810Z,925.91
2019-04-10T03:07:42.386Z,925.93
2019-04-10T03:08:59.272Z,925.93
2019-04-10T03:09:57.407Z,925.88
2019-04-10T03:10:49.541Z,925.90
2019-04-10T03:11:43.895Z,925.87
2019-04-10T03:12:41.848Z,925.89
2019-04-10T03:13:42.941Z,925.87
2019-04-10T03:14:45.173Z,925.90
2019-04-10T03:15:43.493Z,925.86
2019-04-10T03:16:41.839Z,925.83
2019-04-10T03:17:42.094Z,925.85
2019-04-10T03:18:41.782Z,925.79
2019-04-10T03:19:41.770Z,925.83
2019-04-10T03:20:42.735Z,925.82
2019-04-10T03:21:42.937Z,925.80
2019-04-10T03:22:41.751Z,925.81
2019-04-10T03:23:41.948Z,925.80
2019-04-10T03:24:41.714Z,925.82
2019-04-10T03:25:41.718Z,925.77
2019-04-10T03:26:41.706Z,925.79
2019-04-10T03:27:42.707Z,925.79
2019-04-10T03:28:41.669Z,925.82
2019-04-10T03:29:42.226Z,925.77
2019-04-10T03:30:41.817Z,925.83
2019-04-10T03:31:41.828Z,925.85
2019-04-10T03:32:47.622Z,925.83
2019-04-10T03:33:47.059Z,925.85
2019-04-10T03:34:43.907Z,925.82
2019-04-10T03:35:41.606Z,925.83
2019-04-10T03:36:41.580Z,925.85
2019-04-10T03:37:42.543Z,925.84
2019-04-10T03:38:54.491Z,925.81
2019-04-10T03:39:42.677Z,925.80
2019-04-10T03:40:41.781Z,925.79
2019-04-10T03:41:42.198Z,925.83
2019-04-10T03:42:41.515Z,925.80
2019-04-10T03:43:41.724Z,925.83
2019-04-10T03:44:41.512Z,925.85
2019-04-10T03:45:41.507Z,925.83
2019-04-10T03:46:42.630Z,925.84
2019-04-10T03:47:41.867Z,925.82
2019-04-10T03:48:41.446Z,925.82
2019-04-10T03:49:42.242Z,925.82
2019-04-10T03:50:41.664Z,925.86
2019-04-10T03:51:41.428Z,925.90
2019-04-10T03:52:41.403Z,925.90
2019-04-10T03:53:42.466Z,925.89
2019-04-10T03:54:41.380Z,925.89
2019-04-10T03:55:41.368Z,925.90
2019-04-10T03:56:42.310Z,925.91
2019-04-10T03:57:41.352Z,925.91
2019-04-10T03:58:41.926Z,925.93
2019-04-10T03:59:42.022Z,925.88
2019-04-10T04:00:42.463Z,925.93
2019-04-10T04:01:41.331Z,925.93
2019-04-10T04:02:42.091Z,925.93
2019-04-10T04:03:41.279Z,925.89
2019-04-10T04:04:41.777Z,925.93
2019-04-10T04:05:41.261Z,925.95
2019-04-10T04:06:41.994Z,925.97
2019-04-10T04:07:41.237Z,925.98
2019-04-10T04:08:41.235Z,925.97
2019-04-10T04:09:41.866Z,925.98
2019-04-10T04:10:41.203Z,925.98
2019-04-10T04:11:41.967Z,926.03
2019-04-10T04:12:41.178Z,926.00
2019-04-10T04:13:41.745Z,926.00
2019-04-10T04:14:41.167Z,925.98
2019-04-10T04:15:42.138Z,926.01
2019-04-10T04:16:41.518Z,925.99
2019-04-10T04:17:41.177Z,925.98
2019-04-10T04:18:41.510Z,925.97
2019-04-10T04:19:42.111Z,925.98
2019-04-10T04:20:41.313Z,925.93
2019-04-10T04:21:41.823Z,925.95
2019-04-10T04:22:41.185Z,925.90
2019-04-10T04:23:41.055Z,925.93
2019-04-10T04:24:41.979Z,925.92
2019-04-10T04:25:41.058Z,925.93
2019-04-10T04:26:41.054Z,925.91
2019-04-10T04:27:42.030Z,925.93
2019-04-10T04:28:41.850Z,925.90
2019-04-10T04:29:41.355Z,925.91
2019-04-10T04:30:41.956Z,925.90
2019-04-10T04:31:41.933Z,925.91
2019-04-10T04:32:41.863Z,925.94
2019-04-10T04:33:41.145Z,925.96
2019-04-10T04:34:40.942Z,925.91
2019-04-10T04:35:40.932Z,925.95
2019-04-10T04:36:40.953Z,925.95
2019-04-10T04:37:40.922Z,925.97
2019-04-10T04:38:41.061Z,925.95
2019-04-10T04:39:40.877Z,925.97
2019-04-10T04:40:41.984Z,926.02
2019-04-10T04:41:40.869Z,925.95
2019-04-10T04:42:40.852Z,926.02
2019-04-10T04:43:43.138Z,926.05
2019-04-10T04:44:40.834Z,926.04
2019-04-10T04:45:40.811Z,926.07
2019-04-10T04:46:40.814Z,926.09
2019-04-10T04:47:41.252Z,926.07
2019-04-10T04:48:41.202Z,926.05
2019-04-10T04:49:40.767Z,926.07
2019-04-10T04:50:41.627Z,926.08
2019-04-10T04:51:41.696Z,926.05
2019-04-10T04:52:41.198Z,926.04
2019-04-10T04:53:41.801Z,926.04
2019-04-10T04:54:41.463Z,926.04
2019-04-10T04:55:40.700Z,926.06
2019-04-10T04:56:40.703Z,926.01
2019-04-10T04:57:41.096Z,926.02
2019-04-10T04:58:40.675Z,926.00
2019-04-10T04:59:40.763Z,926.03
2019-04-10T05:00:41.653Z,926.06
2019-04-10T05:01:40.643Z,926.05
2019-04-10T05:02:40.645Z,926.06
2019-04-10T05:03:40.609Z,926.06
2019-04-10T05:04:41.627Z,926.08
2019-04-10T05:05:41.172Z,926.08
2019-04-10T05:06:41.638Z,926.11
2019-04-10T05:07:41.689Z,926.10
2019-04-10T05:08:40.561Z,926.08
2019-04-10T05:09:41.027Z,926.11
2019-04-10T05:10:40.531Z,926.11
2019-04-10T05:11:40.628Z,926.12
2019-04-10T05:12:40.904Z,926.14
2019-04-10T05:13:40.501Z,926.21
2019-04-10T05:14:40.497Z,926.14
2019-04-10T05:15:40.830Z,926.14
2019-04-10T05:16:41.566Z,926.19
2019-04-10T05:17:41.487Z,926.16
2019-04-10T05:18:40.444Z,926.18
2019-04-10T05:19:40.624Z,926.17
2019-04-10T05:20:45.985Z,926.19
2019-04-10T05:21:41.548Z,926.18
2019-04-10T05:22:41.530Z,926.16
2019-04-10T05:23:40.660Z,926.18
2019-04-10T05:24:40.487Z,926.17
2019-04-10T05:25:41.385Z,926.16
2019-04-10T05:26:40.553Z,926.23
2019-04-10T05:27:41.348Z,926.16
2019-04-10T05:28:40.335Z,926.16
2019-04-10T05:29:40.890Z,926.15
2019-04-10T05:30:41.099Z,926.16
2019-04-10T05:31:40.531Z,926.15
2019-04-10T05:32:40.358Z,926.18
2019-04-10T05:33:40.775Z,926.14
2019-04-10T05:34:40.478Z,926.15
2019-04-10T05:35:40.253Z,926.19
2019-04-10T05:36:40.242Z,926.18
2019-04-10T05:37:40.246Z,926.22
2019-04-10T05:38:40.226Z,926.18
2019-04-10T05:39:46.156Z,926.24
2019-04-10T05:40:42.141Z,926.21
2019-04-10T05:41:40.187Z,926.20
2019-04-10T05:42:40.189Z,926.20
2019-04-10T05:43:40.164Z,926.19
2019-04-10T05:44:40.244Z,926.28
2019-04-10T05:45:40.185Z,926.25
2019-04-10T05:46:40.917Z,926.23
2019-04-10T05:47:40.167Z,926.26
2019-04-10T05:48:40.109Z,926.27
2019-04-10T05:49:40.097Z,926.23
2019-04-10T05:50:40.103Z,926.27
2019-04-10T05:51:40.074Z,926.25
2019-04-10T05:52:40.082Z,926.28
2019-04-10T05:53:40.835Z,926.25
2019-04-10T05:54:40.051Z,926.25
2019-04-10T05:55:40.679Z,926.26
2019-04-10T05:56:40.592Z,926.26
2019-04-10T05:57:40.658Z,926.28
2019-04-10T05:58:40.874Z,926.22
2019-04-10T05:59:40.441Z,926.32
2019-04-10T06:00:40.997Z,926.27
2019-04-10T06:01:41.714Z,926.29
2019-04-10T06:02:39.958Z,926.29
2019-04-10T06:03:40.819Z,926.29
2019-04-10T06:04:39.934Z,926.28
2019-04-10T06:05:40.474Z,926.30
2019-04-10T06:06:40.888Z,926.28
2019-04-10T06:07:39.904Z,926.30
2019-04-10T06:08:39.926Z,926.35
2019-04-10T06:09:51.947Z,926.35
2019-04-10T06:10:41.605Z,926.35
2019-04-10T06:11:42.481Z,926.36
2019-04-10T06:12:39.840Z,926.34
2019-04-10T06:13:40.891Z,926.30
2019-04-10T06:14:40.091Z,926.31
2019-04-10T06:15:39.807Z,926.32
2019-04-10T06:16:40.590Z,926.32
2019-04-10T06:17:40.659Z,926.28
2019-04-10T06:18:39.798Z,926.28
2019-04-10T06:19:40.570Z,926.30
2019-04-10T06:20:39.767Z,926.26
2019-04-10T06:21:39.825Z,926.28
2019-04-10T06:22:40.848Z,926.29
2019-04-10T06:23:39.735Z,926.30
2019-04-10T06:24:40.492Z,926.33
2019-04-10T06:25:41.940Z,926.26
2019-04-10T06:26:39.707Z,926.22
2019-04-10T06:27:40.774Z,926.22
2019-04-10T06:28:40.131Z,926.23
2019-04-10T06:29:39.651Z,926.23
2019-04-10T06:30:39.836Z,926.26
2019-04-10T06:31:39.640Z,926.24
2019-04-10T06:32:39.812Z,926.24
2019-04-10T06:33:40.303Z,926.19
2019-04-10T06:34:40.763Z,926.22
2019-04-10T06:35:39.899Z,926.24
2019-04-10T06:36:39.687Z,926.25
2019-04-10T06:37:40.093Z,926.23
2019-04-10T06:38:39.600Z,926.20
2019-04-10T06:39:41.981Z,926.23
2019-04-10T06:40:39.529Z,926.21
2019-04-10T06:41:39.517Z,926.21
2019-04-10T06:42:48.596Z,926.21
2019-04-10T06:43:41.239Z,926.15
2019-04-10T06:44:39.494Z,926.19
2019-04-10T06:45:39.900Z,926.20
2019-04-10T06:46:40.697Z,926.22
2019-04-10T06:47:39.509Z,926.17
2019-04-10T06:48:40.374Z,926.17
2019-04-10T06:49:39.428Z,926.18
2019-04-10T06:50:39.432Z,926.20
2019-04-10T06:51:39.405Z,926.21
2019-04-10T06:52:39.395Z,926.18
2019-04-10T06:53:39.408Z,926.20
2019-04-10T06:54:39.373Z,926.24
2019-04-10T06:55:40.486Z,926.26
2019-04-10T06:56:39.349Z,926.23
2019-04-10T06:57:47.651Z,926.26
2019-04-10T06:58:41.070Z,926.28
2019-04-10T06:59:39.898Z,926.29
2019-04-10T07:00:39.307Z,926.31
2019-04-10T07:01:47.521Z,926.33
2019-04-10T07:02:40.283Z,926.31
2019-04-10T07:03:52.760Z,926.31
2019-04-10T07:04:45.813Z,926.38
2019-04-10T07:05:49.484Z,926.31
2019-04-10T07:06:53.946Z,926.38
2019-04-10T07:07:47.529Z,926.35
2019-04-10T07:08:40.396Z,926.35
2019-04-10T07:09:40.022Z,926.34
2019-04-10T07:10:48.267Z,926.33
2019-04-10T07:11:40.184Z,926.42
2019-04-10T07:12:39.705Z,926.39
2019-04-10T07:13:41.253Z,926.39
2019-04-10T07:14:44.072Z,926.39
2019-04-10T07:15:42.902Z,926.34
2019-04-10T07:16:40.181Z,926.42
2019-04-10T07:17:41.209Z,926.41
2019-04-10T07:18:40.145Z,926.40
2019-04-10T07:19:41.545Z,926.32
2019-04-10T07:20:40.025Z,926.39
2019-04-10T07:21:39.074Z,926.43
2019-04-10T07:22:43.630Z,926.39
2019-04-10T07:23:40.766Z,926.42
2019-04-10T07:24:42.332Z,926.50
2019-04-10T07:25:42.458Z,926.44
2019-04-10T07:26:43.266Z,926.50
2019-04-10T07:27:41.461Z,926.45
2019-04-10T07:28:43.447Z,926.49
2019-04-10T07:29:40.400Z,926.47
2019-04-10T07:30:40.021Z,926.55
2019-04-10T07:31:39.737Z,926.45
2019-04-10T07:32:43.294Z,926.41
2019-04-10T07:33:40.595Z,926.49
2019-04-10T07:34:38.949Z,926.48
2019-04-10T07:35:38.915Z,926.48
2019-04-10T07:36:41.652Z,926.47
2019-04-10T07:37:38.893Z,926.51
2019-04-10T07:38:39.302Z,926.50
2019-04-10T07:39:39.560Z,926.48
2019-04-10T07:40:38.872Z,926.52
2019-04-10T07:41:39.711Z,926.50
2019-04-10T07:42:41.566Z,926.52
2019-04-10T07:43:38.826Z,926.53
2019-04-10T07:44:38.871Z,926.55
2019-04-10T07:45:38.808Z,926.50
2019-04-10T07:46:38.808Z,926.50
2019-04-10T07:47:39.840Z,926.52
2019-04-10T07:48:38.784Z,926.54
2019-04-10T07:49:39.639Z,926.58
2019-04-10T07:50:39.066Z,926.55
2019-04-10T07:51:38.956Z,926.58
2019-04-10T07:52:38.745Z,926.56
2019-04-10T07:53:39.421Z,926.56
2019-04-10T07:54:40.511Z,926.59
2019-04-10T07:55:39.742Z,926.59
2019-04-10T07:56:39.571Z,926.59
2019-04-10T07:57:38.671Z,926.62
2019-04-10T07:58:39.840Z,926.56
2019-04-10T07:59:38.664Z,926.59
2019-04-10T08:00:38.692Z,926.62
2019-04-10T08:01:40.431Z,926.57
2019-04-10T08:02:38.614Z,926.63
2019-04-10T08:03:39.567Z,926.62
2019-04-10T08:04:39.524Z,926.61
2019-04-10T08:05:38.582Z,926.60
2019-04-10T08:06:39.551Z,926.60
2019-04-10T08:07:39.310Z,926.63
2019-04-10T08:08:38.550Z,926.59
2019-04-10T08:09:38.547Z,926.63
2019-04-10T08:10:38.558Z,926.62
2019-04-10T08:11:38.515Z,926.64
2019-04-10T08:12:45.913Z,926.67
2019-04-10T08:13:40.612Z,926.63
2019-04-10T08:14:38.488Z,926.71
2019-04-10T08:15:38.487Z,926.66
2019-04-10T08:16:39.404Z,926.66
2019-04-10T08:17:39.002Z,926.70
2019-04-10T08:18:39.440Z,926.67
2019-04-10T08:19:39.094Z,926.70
2019-04-10T08:20:38.429Z,926.68
2019-04-10T08:21:38.402Z,926.70
2019-04-10T08:22:39.289Z,926.71
2019-04-10T08:23:38.381Z,926.70
2019-04-10T08:24:38.606Z,926.70
2019-04-10T08:25:38.764Z,926.72
2019-04-10T08:26:38.823Z,926.73
2019-04-10T08:27:38.562Z,926.73
2019-04-10T08:28:38.338Z,926.75
2019-04-10T08:29:39.362Z,926.75
2019-04-10T08:30:38.329Z,926.74
2019-04-10T08:31:38.337Z,926.78
2019-04-10T08:32:50.896Z,926.77
2019-04-10T08:33:39.267Z,926.78
2019-04-10T08:34:38.268Z,926.79
2019-04-10T08:35:38.261Z,926.81
2019-04-10T08:36:39.381Z,926.76
2019-04-10T08:37:39.111Z,926.79
2019-04-10T08:38:38.215Z,926.79
2019-04-10T08:39:44.047Z,926.83
2019-04-10T08:40:40.329Z,926.85
2019-04-10T08:41:38.369Z,926.86
2019-04-10T08:42:40.220Z,926.89
2019-04-10T08:43:38.162Z,926.86
2019-04-10T08:44:38.356Z,926.85
2019-04-10T08:45:46.632Z,926.80
2019-04-10T08:46:39.141Z,926.87
2019-04-10T08:47:38.116Z,926.87
2019-04-10T08:48:39.092Z,926.85
2019-04-10T08:49:38.996Z,926.86
2019-04-10T08:50:38.555Z,926.88
2019-04-10T08:51:38.069Z,926.85
2019-04-10T08:52:39.071Z,926.88
2019-04-10T08:53:38.327Z,926.93
2019-04-10T08:54:38.418Z,926.89
2019-04-10T08:55:38.048Z,926.90
2019-04-10T08:56:38.706Z,926.85
2019-04-10T08:57:38.284Z,926.89
2019-04-10T08:58:39.079Z,926.90
2019-04-10T08:59:38.300Z,926.92
2019-04-10T09:00:37.995Z,926.88
2019-04-10T09:01:37.957Z,926.89
2019-04-10T09:02:38.184Z,926.89
2019-04-10T09:03:37.936Z,926.90
2019-04-10T09:04:37.928Z,926.88
2019-04-10T09:05:37.929Z,926.93
2019-04-10T09:06:37.907Z,926.87
2019-04-10T09:07:38.226Z,926.91
2019-04-10T09:08:37.881Z,926.93
2019-04-10T09:09:37.869Z,926.98
2019-04-10T09:10:38.513Z,926.97
2019-04-10T09:11:37.848Z,927.02
2019-04-10T09:12:38.870Z,926.94
2019-04-10T09:13:38.833Z,926.96
2019-04-10T09:14:37.812Z,926.97
2019-04-10T09:15:38.170Z,926.95
2019-04-10T09:16:38.557Z,926.98
2019-04-10T09:17:37.786Z,926.97
2019-04-10T09:18:37.769Z,926.95
2019-04-10T09:19:38.138Z,926.95
2019-04-10T09:20:38.502Z,926.99
2019-04-10T09:21:38.811Z,927.01
2019-04-10T09:23:04.246Z,927.06
2019-04-10T09:23:45.640Z,927.03
2019-04-10T09:24:38.701Z,927.04
2019-04-10T09:25:37.707Z,927.09
2019-04-10T09:26:38.265Z,927.11
2019-04-10T09:27:37.943Z,927.11
2019-04-10T09:28:38.308Z,927.08
2019-04-10T09:29:38.269Z,927.08
2019-04-10T09:30:37.656Z,927.08
2019-04-10T09:31:37.863Z,927.10
2019-04-10T09:32:38.901Z,927.06
2019-04-10T09:33:37.607Z,927.11
2019-04-10T09:34:38.010Z,927.05
2019-04-10T09:35:38.473Z,927.09
2019-04-10T09:36:37.598Z,927.07
2019-04-10T09:37:38.001Z,927.09
2019-04-10T09:38:37.545Z,927.09
2019-04-10T09:39:37.544Z,927.08
2019-04-10T09:40:38.380Z,927.10
2019-04-10T09:41:38.295Z,927.11
2019-04-10T09:42:37.599Z,927.11
2019-04-10T09:43:37.985Z,927.08
2019-04-10T09:44:37.980Z,927.10
2019-04-10T09:45:37.467Z,927.12
2019-04-10T09:46:37.481Z,927.12
2019-04-10T09:47:37.445Z,927.13
2019-04-10T09:48:37.975Z,927.14
2019-04-10T09:49:42.067Z,927.12
2019-04-10T09:50:39.547Z,927.16
2019-04-10T09:51:38.310Z,927.17
2019-04-10T09:52:37.657Z,927.18
2019-04-10T09:53:37.377Z,927.19
2019-04-10T09:54:38.273Z,927.16
2019-04-10T09:55:38.338Z,927.18
2019-04-10T09:56:38.476Z,927.15
2019-04-10T09:57:37.339Z,927.16
2019-04-10T09:58:37.351Z,927.22
2019-04-10T09:59:39.704Z,927.16
2019-04-10T10:00:38.181Z,927.16
2019-04-10T10:01:37.946Z,927.21
2019-04-10T10:02:37.980Z,927.20
2019-04-10T10:03:37.270Z,927.16
2019-04-10T10:04:37.634Z,927.18
2019-04-10T10:05:37.244Z,927.20
2019-04-10T10:06:38.460Z,927.24
2019-04-10T10:07:37.224Z,927.19
2019-04-10T10:08:37.210Z,927.25
2019-04-10T10:09:37.213Z,927.22
2019-04-10T10:10:38.344Z,927.24
2019-04-10T10:11:37.244Z,927.24
2019-04-10T10:12:37.180Z,927.23
2019-04-10T10:13:37.408Z,927.25
2019-04-10T10:14:38.052Z,927.25
2019-04-10T10:15:37.681Z,927.26
2019-04-10T10:16:37.159Z,927.26
2019-04-10T10:17:37.124Z,927.27
2019-04-10T10:18:37.385Z,927.30
2019-04-10T10:19:37.096Z,927.31
2019-04-10T10:20:37.704Z,927.32
2019-04-10T10:21:37.101Z,927.31
2019-04-10T10:22:37.166Z,927.31
2019-04-10T10:23:38.081Z,927.34
2019-04-10T10:24:37.034Z,927.34
2019-04-10T10:25:37.493Z,927.30
2019-04-10T10:26:37.011Z,927.30
2019-04-10T10:27:37.020Z,927.33
2019-04-10T10:28:37.419Z,927.30
2019-04-10T10:29:37.649Z,927.30
2019-04-10T10:30:37.696Z,927.30
2019-04-10T10:31:37.993Z,927.31
2019-04-10T10:32:37.231Z,927.31
2019-04-10T10:33:37.576Z,927.28
2019-04-10T10:34:36.929Z,927.31
2019-04-10T10:35:36.911Z,927.35
2019-04-10T10:36:41.926Z,927.31
2019-04-10T10:37:38.848Z,927.30
2019-04-10T10:38:37.019Z,927.32
2019-04-10T10:39:37.157Z,927.36
2019-04-10T10:40:36.866Z,927.30
2019-04-10T10:41:36.844Z,927.28
2019-04-10T10:42:38.515Z,927.29
2019-04-10T10:43:36.829Z,927.30
2019-04-10T10:44:36.809Z,927.29
2019-04-10T10:45:36.818Z,927.30
2019-04-10T10:46:37.724Z,927.27
2019-04-10T10:47:38.008Z,927.27
2019-04-10T10:48:37.907Z,927.31
2019-04-10T10:49:36.834Z,927.34
2019-04-10T10:50:37.299Z,927.29
2019-04-10T10:51:37.065Z,927.34
2019-04-10T10:52:36.742Z,927.34
2019-04-10T10:53:36.712Z,927.30
2019-04-10T10:54:36.957Z,927.33
2019-04-10T10:55:37.735Z,927.36
2019-04-10T10:56:36.677Z,927.35
2019-04-10T10:57:37.480Z,927.27
2019-04-10T10:58:37.573Z,927.34
2019-04-10T10:59:37.633Z,927.32
2019-04-10T11:00:36.637Z,927.31
2019-04-10T11:01:36.622Z,927.29
2019-04-10T11:02:36.625Z,927.33
2019-04-10T11:03:36.597Z,927.34
2019-04-10T11:04:37.739Z,927.28
2019-04-10T11:05:37.148Z,927.33
2019-04-10T11:06:49.781Z,927.28
2019-04-10T11:07:38.858Z,927.35
2019-04-10T11:08:37.317Z,927.34
2019-04-10T11:09:37.052Z,927.29
2019-04-10T11:10:36.532Z,927.38
2019-04-10T11:11:36.957Z,927.35
2019-04-10T11:12:36.514Z,927.32
2019-04-10T11:13:37.198Z,927.32
2019-04-10T11:14:37.148Z,927.30
2019-04-10T11:15:40.939Z,927.34
2019-04-10T11:16:37.814Z,927.34
2019-04-10T11:17:36.467Z,927.33
2019-04-10T11:18:36.441Z,927.33
2019-04-10T11:19:37.133Z,927.34
2019-04-10T11:20:36.482Z,927.31
2019-04-10T11:21:36.418Z,927.33
2019-04-10T11:22:37.630Z,927.38
2019-04-10T11:23:36.426Z,927.38
2019-04-10T11:24:38.145Z,927.35
2019-04-10T11:25:37.739Z,927.36
2019-04-10T11:26:36.342Z,927.39
2019-04-10T11:27:36.333Z,927.37
2019-04-10T11:28:36.845Z,927.44
2019-04-10T11:29:37.648Z,927.41
2019-04-10T11:30:36.332Z,927.45
2019-04-10T11:31:38.114Z,927.44
2019-04-10T11:32:36.949Z,927.41
2019-04-10T11:33:37.280Z,927.42
2019-04-10T11:34:36.263Z,927.45
2019-04-10T11:35:37.375Z,927.47
2019-04-10T11:36:36.270Z,927.45
2019-04-10T11:37:43.609Z,927.45
2019-04-10T11:38:37.495Z,927.45
2019-04-10T11:39:40.435Z,927.46
2019-04-10T11:40:37.201Z,927.46
2019-04-10T11:41:37.376Z,927.54
2019-04-10T11:42:37.153Z,927.49
2019-04-10T11:43:37.534Z,927.50
2019-04-10T11:44:36.785Z,927.49
2019-04-10T11:45:43.124Z,927.48
2019-04-10T11:46:38.695Z,927.50
2019-04-10T11:47:36.483Z,927.50
2019-04-10T11:48:36.650Z,927.46
2019-04-10T11:49:39.271Z,927.49
2019-04-10T11:50:38.453Z,927.48
2019-04-10T11:51:38.383Z,927.49
2019-04-10T11:54:40.938Z,927.54
2019-04-10T11:55:44.982Z,927.51
2019-04-10T11:56:38.439Z,927.53
2019-04-10T11:57:37.310Z,927.53
2019-04-10T11:58:47.238Z,927.54
2019-04-10T11:59:38.962Z,927.55
2019-04-10T12:00:46.691Z,927.53
2019-04-10T12:01:39.139Z,927.51
2019-04-10T12:02:37.068Z,927.56
2019-04-10T12:03:37.149Z,927.55
2019-04-10T12:04:45.059Z,927.53
2019-04-10T12:05:38.582Z,927.58
2019-04-10T12:06:37.817Z,927.58
2019-04-10T12:08:01.990Z,927.56
2019-04-10T12:09:04.570Z,927.57
2019-04-10T12:11:37.159Z,927.55
2019-04-10T12:12:35.831Z,927.53
2019-04-10T12:13:36.578Z,927.63
2019-04-10T12:14:35.819Z,927.61
2019-04-10T12:15:36.483Z,927.57
2019-04-10T12:16:36.687Z,927.58
2019-04-10T12:17:36.083Z,927.59
2019-04-10T12:18:35.780Z,927.61
2019-04-10T12:19:36.185Z,927.62
2019-04-10T12:20:35.742Z,927.61
2019-04-10T12:21:35.836Z,927.60
2019-04-10T12:22:35.884Z,927.62
2019-04-10T12:23:36.813Z,927.58
2019-04-10T12:24:36.354Z,927.59
2019-04-10T12:25:36.633Z,927.58
2019-04-10T12:26:35.958Z,927.58
2019-04-10T12:27:36.895Z,927.56
2019-04-10T12:28:36.128Z,927.58
2019-04-10T12:29:35.644Z,927.57
2019-04-10T12:30:35.631Z,927.59
2019-04-10T12:31:36.410Z,927.56
2019-04-10T12:32:36.665Z,927.57